Time;durP1;ratioP1;P1;durP2;ratioP2;P2;SDS_P1;SDS_P2;PMS_P1;PMS_P2;Temp;Humidity;BMP_temperature;BMP_pressure;BME280_temperature;BME280_humidity;BME280_pressure;Samples;Min_cycle;Max_cycle;Signal;HPM_P1;HPM_P2
2022/10/17 00:01:32;;;;;;;8.25;5.80;;;14.60;99.90;;;;;;5112962;28;20061;-73
2022/10/17 00:03:58;;;;;;;10.15;6.07;;;14.70;99.90;;;;;;5093876;28;20074;-73
2022/10/17 00:06:23;;;;;;;13.80;7.35;;;14.70;99.90;;;;;;5102583;28;20015;-74
2022/10/17 00:08:49;;;;;;;9.93;6.30;;;14.60;99.90;;;;;;5099138;28;20051;-74
2022/10/17 00:11:19;;;;;;;10.23;7.15;;;14.60;99.90;;;;;;5092940;28;20027;-73
2022/10/17 00:13:46;;;;;;;12.95;7.20;;;14.60;99.90;;;;;;5098659;28;20027;-74
2022/10/17 00:16:12;;;;;;;11.65;7.10;;;14.60;99.90;;;;;;5113206;28;20161;-74
2022/10/17 00:18:38;;;;;;;11.90;6.82;;;14.60;99.90;;;;;;5104082;28;20115;-73
2022/10/17 00:21:04;;;;;;;7.88;6.40;;;14.60;99.90;;;;;;5105791;28;20020;-73
2022/10/17 00:23:29;;;;;;;11.55;7.25;;;14.60;99.90;;;;;;5104068;28;20077;-74
2022/10/17 00:26:04;;;;;;;10.10;6.88;;;14.50;99.90;;;;;;5101242;28;20024;-73
2022/10/17 00:28:30;;;;;;;11.63;7.50;;;14.50;99.90;;;;;;5098820;28;20102;-73
2022/10/17 00:31:01;;;;;;;11.35;7.78;;;14.50;99.90;;;;;;5112967;28;20106;-73
2022/10/17 00:33:28;;;;;;;12.20;8.05;;;14.50;99.90;;;;;;5106819;28;20466;-73
2022/10/17 00:36:02;;;;;;;14.38;8.07;;;14.50;99.90;;;;;;5092198;28;20028;-73
2022/10/17 00:38:28;;;;;;;13.20;8.03;;;14.50;99.90;;;;;;5091778;28;20020;-73
2022/10/17 00:40:53;;;;;;;14.40;9.15;;;14.50;99.90;;;;;;5092204;28;20024;-74
2022/10/17 00:43:19;;;;;;;14.57;8.80;;;14.50;99.90;;;;;;5106585;28;20048;-74
2022/10/17 00:45:44;;;;;;;12.63;8.57;;;14.50;99.90;;;;;;5112716;28;20023;-74
2022/10/17 00:48:10;;;;;;;11.77;8.65;;;14.50;99.90;;;;;;5111197;28;20424;-73
2022/10/17 00:50:39;;;;;;;13.02;8.75;;;14.40;99.90;;;;;;5106647;28;20039;-74
2022/10/17 00:53:06;;;;;;;14.95;8.60;;;14.40;99.90;;;;;;5102709;28;20023;-73
2022/10/17 00:55:37;;;;;;;14.60;9.23;;;14.40;99.90;;;;;;5093492;28;20495;-74
2022/10/17 00:58:05;;;;;;;14.77;9.25;;;14.50;99.90;;;;;;5092064;28;20092;-74
2022/10/17 01:00:31;;;;;;;12.50;9.07;;;14.50;99.90;;;;;;5085760;28;20034;-73
2022/10/17 01:02:57;;;;;;;11.07;9.00;;;14.50;99.90;;;;;;5100632;28;20039;-74
2022/10/17 01:05:22;;;;;;;13.80;9.32;;;14.50;99.90;;;;;;5095614;28;20051;-74
2022/10/17 01:07:51;;;;;;;13.52;9.70;;;14.50;99.90;;;;;;5091028;28;20093;-74
2022/10/17 01:10:17;;;;;;;16.00;10.20;;;14.50;99.90;;;;;;5103794;28;20149;-73
2022/10/17 01:13:10;;;;;;;12.77;9.60;;;14.50;99.90;;;;;;5105394;28;20467;-73
2022/10/17 01:15:35;;;;;;;13.80;9.88;;;14.50;99.90;;;;;;5089886;28;20082;-74
2022/10/17 01:18:13;;;;;;;15.27;10.63;;;14.40;99.90;;;;;;5096274;28;20475;-73
2022/10/17 01:20:42;;;;;;;18.40;11.75;;;14.40;99.90;;;;;;5089265;28;20020;-73
2022/10/17 01:23:41;;;;;;;16.02;10.43;;;14.40;99.90;;;;;;5112080;28;20075;-74
2022/10/17 01:26:27;;;;;;;17.90;10.10;;;14.50;99.90;;;;;;5086466;28;20056;-74
2022/10/17 01:29:04;;;;;;;17.40;11.68;;;14.40;99.90;;;;;;5066474;28;20467;-74
2022/10/17 01:31:45;;;;;;;16.92;10.98;;;14.50;99.90;;;;;;5110094;28;20200;-74
2022/10/17 01:34:31;;;;;;;14.60;11.15;;;14.50;99.90;;;;;;5101125;28;20032;-74
2022/10/17 01:37:01;;;;;;;15.07;11.20;;;14.50;99.90;;;;;;5107503;28;20023;-74
2022/10/17 01:39:38;;;;;;;17.40;11.48;;;14.40;99.90;;;;;;5099615;28;20152;-74
2022/10/17 01:42:12;;;;;;;18.27;11.20;;;14.40;99.90;;;;;;5104511;28;20062;-74
2022/10/17 01:44:58;;;;;;;15.80;10.75;;;14.40;99.90;;;;;;5090453;28;20481;-74
2022/10/17 01:47:31;;;;;;;18.13;11.73;;;14.40;99.90;;;;;;5075659;28;20030;-73
2022/10/17 01:50:11;;;;;;;17.10;11.75;;;14.40;99.90;;;;;;5111010;28;20501;-74
2022/10/17 01:52:54;;;;;;;17.20;12.38;;;14.30;99.90;;;;;;5104696;28;20027;-74
2022/10/17 01:55:26;;;;;;;16.08;12.15;;;14.40;99.90;;;;;;5103100;28;20028;-74
2022/10/17 01:58:01;;;;;;;20.50;13.10;;;14.40;99.90;;;;;;5090597;28;20036;-73
2022/10/17 02:00:28;;;;;;;;;;;14.40;99.90;;;;;;5091371;28;20427;-74
2022/10/17 02:03:01;;;;;;;19.75;13.55;;;14.40;99.90;;;;;;5110796;28;19907;-73
2022/10/17 02:05:31;;;;;;;18.92;13.48;;;14.40;99.90;;;;;;5109983;28;20036;-75
2022/10/17 02:07:57;;;;;;;16.77;12.27;;;14.40;99.90;;;;;;5111011;28;20035;-73
2022/10/17 02:10:28;;;;;;;19.38;12.93;;;14.40;99.90;;;;;;5098156;28;20016;-74
2022/10/17 02:13:03;;;;;;;19.00;12.90;;;14.40;99.90;;;;;;5073857;28;20020;-73
2022/10/17 02:15:55;;;;;;;26.97;13.87;;;14.40;99.90;;;;;;5090194;28;20020;-74
2022/10/17 02:19:04;;;;;;;19.45;12.85;;;14.40;99.90;;;;;;5099130;28;20261;-74
2022/10/17 02:21:59;;;;;;;22.67;13.18;;;14.40;99.90;;;;;;5102512;28;20020;-73
2022/10/17 02:24:33;;;;;;;22.58;13.75;;;14.40;99.90;;;;;;5091650;28;20372;-73
2022/10/17 02:27:08;;;;;;;22.38;13.55;;;14.40;99.90;;;;;;5110558;28;20102;-74
2022/10/17 02:29:43;;;;;;;25.03;14.43;;;14.40;99.90;;;;;;5092349;28;20086;-73
2022/10/17 02:32:20;;;;;;;19.45;13.52;;;14.40;99.90;;;;;;5098242;28;20106;-74
2022/10/17 02:34:49;;;;;;;20.75;13.60;;;14.40;99.90;;;;;;5092848;28;20048;-74
2022/10/17 02:37:20;;;;;;;24.67;14.32;;;14.40;99.90;;;;;;5099524;28;20455;-74
2022/10/17 02:39:47;;;;;;;18.90;13.35;;;14.50;99.90;;;;;;5089011;28;20024;-74
2022/10/17 02:42:13;;;;;;;20.58;13.55;;;14.50;99.90;;;;;;5091856;28;20032;-74
2022/10/17 02:44:43;;;;;;;20.13;13.23;;;14.50;99.90;;;;;;5103064;28;20240;-73
2022/10/17 02:47:26;;;;;;;20.80;13.75;;;14.60;99.90;;;;;;5093623;28;20107;-73
2022/10/17 02:49:55;;;;;;;19.40;13.70;;;14.60;99.90;;;;;;5101613;28;20039;-74
2022/10/17 02:52:42;;;;;;;20.92;13.73;;;14.70;99.90;;;;;;5103811;28;20024;-74
2022/10/17 02:55:24;;;;;;;21.25;13.82;;;14.70;99.90;;;;;;5071503;28;20131;-73
2022/10/17 02:57:53;;;;;;;18.13;12.82;;;14.80;99.90;;;;;;5097211;28;20020;-74
2022/10/17 03:00:21;;;;;;;19.92;13.25;;;14.80;99.90;;;;;;5090664;28;20390;-74
2022/10/17 03:02:49;;;;;;;20.63;12.90;;;14.80;99.90;;;;;;5095088;28;20502;-74
2022/10/17 03:05:19;;;;;;;20.65;13.23;;;14.80;99.90;;;;;;5097851;28;20050;-74
2022/10/17 03:07:44;;;;;;;19.27;11.82;;;14.90;99.90;;;;;;5088111;28;20032;-73
2022/10/17 03:10:11;;;;;;;20.63;13.02;;;14.90;99.90;;;;;;5079612;28;20112;-73
2022/10/17 03:12:36;;;;;;;19.58;12.18;;;14.90;99.90;;;;;;5093388;28;20020;-74
2022/10/17 03:15:02;;;;;;;17.75;12.18;;;14.90;99.90;;;;;;5103530;28;20017;-74
2022/10/17 03:17:28;;;;;;;19.05;12.20;;;14.90;99.90;;;;;;5089894;28;20028;-73
2022/10/17 03:19:54;;;;;;;17.25;11.18;;;14.90;99.90;;;;;;5097318;28;20024;-74
2022/10/17 03:22:19;;;;;;;17.73;11.75;;;14.90;99.90;;;;;;5091797;28;20054;-74
2022/10/17 03:24:45;;;;;;;20.40;12.38;;;15.00;99.90;;;;;;5109218;28;20392;-73
2022/10/17 03:27:10;;;;;;;19.38;12.10;;;15.10;99.90;;;;;;5110232;28;20040;-73
2022/10/17 03:29:36;;;;;;;22.63;13.18;;;15.10;99.90;;;;;;5092717;28;20073;-73
2022/10/17 03:32:04;;;;;;;20.15;12.25;;;15.30;99.90;;;;;;5097353;28;20069;-74
2022/10/17 03:34:30;;;;;;;17.25;12.13;;;15.30;99.90;;;;;;5105291;28;20024;-74
2022/10/17 03:36:55;;;;;;;21.30;12.52;;;15.40;99.90;;;;;;5103096;28;20027;-73
2022/10/17 03:39:21;;;;;;;17.98;11.85;;;15.50;99.90;;;;;;5089705;28;20476;-74
2022/10/17 03:41:47;;;;;;;20.45;11.13;;;15.50;99.90;;;;;;5106199;28;20027;-74
2022/10/17 03:44:12;;;;;;;19.25;12.23;;;15.50;99.90;;;;;;5099441;28;20605;-74
2022/10/17 03:46:38;;;;;;;18.23;12.63;;;15.50;99.90;;;;;;5105418;28;20016;-74
2022/10/17 03:49:03;;;;;;;18.08;11.60;;;15.50;99.90;;;;;;5092006;28;20507;-73
2022/10/17 03:51:29;;;;;;;19.38;12.48;;;15.50;99.90;;;;;;5092455;28;20472;-74
2022/10/17 03:53:54;;;;;;;20.55;12.43;;;15.50;99.90;;;;;;5092338;28;20109;-74
2022/10/17 03:56:24;;;;;;;18.70;11.38;;;15.50;99.90;;;;;;5098864;28;20020;-74
2022/10/17 03:58:50;;;;;;;16.58;12.18;;;15.50;99.90;;;;;;5088481;28;20020;-73
2022/10/17 04:01:17;;;;;;;24.88;13.10;;;15.60;99.90;;;;;;5088487;28;20055;-74
2022/10/17 04:03:47;;;;;;;18.88;11.43;;;15.50;99.90;;;;;;5092919;28;20070;-73
2022/10/17 04:06:12;;;;;;;17.52;11.30;;;15.50;99.90;;;;;;5103575;28;20528;-73
2022/10/17 04:08:38;;;;;;;16.77;11.93;;;15.50;99.90;;;;;;5113711;28;20024;-73
2022/10/17 04:11:06;;;;;;;25.95;13.52;;;15.50;99.90;;;;;;5097403;28;20027;-73
2022/10/17 04:13:32;;;;;;;18.50;12.15;;;15.60;99.90;;;;;;5099467;28;20062;-73
2022/10/17 04:16:03;;;;;;;17.92;11.48;;;15.60;99.90;;;;;;5103931;28;20098;-73
2022/10/17 04:18:29;;;;;;;21.73;11.77;;;15.60;99.90;;;;;;5103233;28;20479;-73
2022/10/17 04:20:55;;;;;;;20.00;12.30;;;15.60;99.90;;;;;;5097147;28;20063;-73
2022/10/17 04:23:21;;;;;;;20.92;12.15;;;15.70;99.90;;;;;;5105251;28;20367;-73
2022/10/17 04:25:48;;;;;;;21.23;11.85;;;15.70;99.90;;;;;;5092089;28;20433;-73
2022/10/17 04:28:14;;;;;;;18.67;11.63;;;15.70;99.90;;;;;;5109907;28;20107;-72
2022/10/17 04:30:40;;;;;;;24.08;11.75;;;15.70;99.90;;;;;;5083536;28;20510;-72
2022/10/17 04:33:06;;;;;;;18.55;12.25;;;15.70;99.90;;;;;;5104814;28;20031;-72
2022/10/17 04:35:31;;;;;;;19.17;11.85;;;15.70;99.90;;;;;;5095946;28;20106;-75
2022/10/17 04:37:57;;;;;;;17.75;11.75;;;15.70;99.90;;;;;;5098212;28;20057;-72
2022/10/17 04:40:22;;;;;;;18.50;11.90;;;15.70;99.90;;;;;;5094718;28;20036;-73
2022/10/17 04:42:48;;;;;;;16.45;11.50;;;15.80;99.90;;;;;;5095341;28;20039;-73
2022/10/17 04:45:14;;;;;;;18.27;11.85;;;15.80;99.90;;;;;;5105940;28;20407;-73
2022/10/17 04:47:39;;;;;;;21.85;10.85;;;15.80;99.90;;;;;;5104087;28;20032;-73
2022/10/17 04:50:05;;;;;;;19.15;11.38;;;15.70;99.90;;;;;;5106613;28;20060;-73
2022/10/17 04:52:31;;;;;;;17.27;11.75;;;15.80;99.90;;;;;;5099205;28;20285;-73
2022/10/17 04:54:57;;;;;;;18.00;11.95;;;15.70;99.90;;;;;;5096980;28;20020;-73
2022/10/17 04:57:23;;;;;;;17.85;11.15;;;15.70;99.90;;;;;;5097773;28;20036;-72
2022/10/17 04:59:49;;;;;;;22.42;11.65;;;15.70;99.90;;;;;;5110571;28;20069;-72
2022/10/17 05:02:15;;;;;;;17.17;11.13;;;15.70;99.90;;;;;;5109738;28;20036;-73
2022/10/17 05:04:40;;;;;;;18.67;10.90;;;15.70;99.90;;;;;;5098329;28;20054;-72
2022/10/17 05:07:06;;;;;;;15.57;11.00;;;15.70;99.90;;;;;;5100409;28;20039;-72
2022/10/17 05:09:32;;;;;;;19.17;11.02;;;15.70;99.90;;;;;;5099674;28;20016;-74
2022/10/17 05:11:57;;;;;;;19.50;11.70;;;15.70;99.90;;;;;;5099593;28;20480;-73
2022/10/17 05:14:23;;;;;;;20.98;11.80;;;15.70;99.90;;;;;;5108664;28;20058;-73
2022/10/17 05:16:48;;;;;;;16.38;11.40;;;15.80;99.90;;;;;;5099466;28;20479;-73
2022/10/17 05:19:14;;;;;;;20.83;11.43;;;15.70;99.90;;;;;;5089781;28;20024;-73
2022/10/17 05:21:39;;;;;;;19.30;11.95;;;15.80;99.90;;;;;;5098087;28;20028;-72
2022/10/17 05:24:07;;;;;;;19.83;12.10;;;15.80;99.90;;;;;;5102201;28;20383;-73
2022/10/17 05:26:32;;;;;;;19.70;11.63;;;15.80;99.90;;;;;;5098544;28;20047;-73
2022/10/17 05:29:01;;;;;;;21.52;12.00;;;15.90;99.90;;;;;;5106162;28;20020;-73
2022/10/17 05:31:28;;;;;;;16.52;11.32;;;15.90;99.90;;;;;;5106673;28;20047;-73
2022/10/17 05:33:53;;;;;;;18.65;11.23;;;15.90;99.90;;;;;;5106080;28;20024;-74
2022/10/17 05:36:19;;;;;;;16.48;11.27;;;15.90;99.90;;;;;;5105857;28;20651;-73
2022/10/17 05:38:51;;;;;;;20.15;11.30;;;15.90;99.90;;;;;;5108495;28;20389;-73
2022/10/17 05:41:17;;;;;;;19.88;11.27;;;15.90;99.90;;;;;;5106316;28;20029;-73
2022/10/17 05:43:43;;;;;;;21.27;10.65;;;15.90;99.90;;;;;;5107188;28;20491;-72
2022/10/17 05:46:10;;;;;;;19.15;11.63;;;15.90;99.90;;;;;;5109740;28;20050;-74
2022/10/17 05:48:35;;;;;;;16.60;10.80;;;15.90;99.90;;;;;;5108715;28;20399;-74
2022/10/17 05:51:05;;;;;;;14.70;10.07;;;15.90;99.90;;;;;;5110072;28;20019;-73
2022/10/17 05:53:32;;;;;;;17.17;10.73;;;15.90;99.90;;;;;;5110093;28;20763;-73
2022/10/17 05:55:59;;;;;;;18.05;10.95;;;15.90;99.90;;;;;;5109497;28;20036;-73
2022/10/17 05:58:26;;;;;;;17.20;10.48;;;15.90;99.90;;;;;;5109880;28;20510;-73
2022/10/17 06:00:51;;;;;;;19.40;11.55;;;15.90;99.90;;;;;;5108507;28;20046;-74
2022/10/17 06:03:17;;;;;;;17.48;10.65;;;15.90;99.90;;;;;;5109672;28;20483;-73
2022/10/17 06:05:42;;;;;;;18.38;10.98;;;15.90;99.90;;;;;;5107568;28;20027;-73
2022/10/17 06:08:08;;;;;;;14.57;10.18;;;15.90;99.90;;;;;;5105428;28;20039;-74
2022/10/17 06:10:33;;;;;;;19.02;10.35;;;15.90;99.90;;;;;;5105480;28;20028;-75
2022/10/17 06:12:59;;;;;;;17.90;10.70;;;15.90;99.90;;;;;;5105942;28;20024;-73
2022/10/17 06:15:25;;;;;;;18.40;10.95;;;15.90;99.90;;;;;;5100853;28;20047;-74
2022/10/17 06:17:50;;;;;;;19.00;11.25;;;15.90;99.90;;;;;;5107519;28;20471;-73
2022/10/17 06:20:16;;;;;;;20.48;11.65;;;15.90;99.90;;;;;;5109666;28;20031;-74
2022/10/17 06:22:42;;;;;;;19.17;11.25;;;15.90;99.90;;;;;;5108033;28;20115;-75
2022/10/17 06:25:08;;;;;;;18.38;11.00;;;16.00;99.90;;;;;;5109266;28;20043;-74
2022/10/17 06:27:33;;;;;;;18.58;11.20;;;16.00;99.90;;;;;;5107662;28;20016;-74
2022/10/17 06:29:59;;;;;;;17.48;11.07;;;16.00;99.90;;;;;;5107664;28;20400;-75
2022/10/17 06:32:24;;;;;;;21.73;10.82;;;16.00;99.90;;;;;;5106757;28;20038;-71
2022/10/17 06:34:50;;;;;;;16.80;11.18;;;16.00;99.90;;;;;;5105674;28;20103;-71
2022/10/17 06:37:15;;;;;;;20.92;11.52;;;16.10;99.90;;;;;;5106518;28;20035;-74
2022/10/17 06:39:41;;;;;;;13.90;10.30;;;16.10;99.90;;;;;;5106561;28;20487;-74
2022/10/17 06:42:07;;;;;;;17.13;10.60;;;16.00;99.90;;;;;;5104911;28;20032;-74
2022/10/17 06:44:33;;;;;;;18.50;11.10;;;16.00;99.90;;;;;;5106240;28;20024;-75
2022/10/17 06:46:59;;;;;;;17.77;10.82;;;16.10;99.90;;;;;;5106295;28;20038;-73
2022/10/17 06:49:26;;;;;;;16.27;10.63;;;16.10;99.90;;;;;;5106594;28;20055;-74
2022/10/17 06:51:51;;;;;;;16.35;10.85;;;16.10;99.90;;;;;;5106492;28;20019;-73
2022/10/17 06:54:17;;;;;;;17.98;11.20;;;16.10;99.90;;;;;;5106108;28;20027;-74
2022/10/17 06:56:43;;;;;;;16.60;11.13;;;16.10;99.90;;;;;;5106972;28;20458;-73
2022/10/17 06:59:09;;;;;;;16.25;11.27;;;16.10;99.90;;;;;;5105990;28;20106;-74
2022/10/17 07:01:34;;;;;;;19.83;11.50;;;16.10;99.90;;;;;;5108689;28;20438;-73
2022/10/17 07:04:00;;;;;;;22.02;12.35;;;16.10;99.90;;;;;;5106409;28;20030;-73
2022/10/17 07:06:26;;;;;;;20.85;12.68;;;16.20;99.90;;;;;;5106065;28;20027;-74
2022/10/17 07:08:51;;;;;;;20.90;12.30;;;16.20;99.90;;;;;;5087999;28;20534;-73
2022/10/17 07:11:19;;;;;;;17.23;12.02;;;16.20;99.90;;;;;;5106596;28;20050;-71
2022/10/17 07:13:45;;;;;;;18.60;11.77;;;16.30;99.90;;;;;;5106764;28;20039;-71
2022/10/17 07:16:11;;;;;;;18.83;12.52;;;16.30;99.90;;;;;;5104927;28;20099;-71
2022/10/17 07:18:37;;;;;;;18.35;12.13;;;16.30;99.90;;;;;;5106566;28;20040;-71
2022/10/17 07:21:03;;;;;;;21.25;11.48;;;16.30;99.90;;;;;;5104739;28;20019;-71
2022/10/17 07:23:29;;;;;;;20.40;11.48;;;16.40;99.90;;;;;;5105343;28;20411;-71
2022/10/17 07:26:06;;;;;;;17.67;10.98;;;16.40;99.90;;;;;;5105640;28;20030;-70
2022/10/17 07:28:33;;;;;;;23.13;11.63;;;16.50;99.90;;;;;;5105797;28;20028;-71
2022/10/17 07:31:04;;;;;;;17.08;11.23;;;16.50;99.90;;;;;;5087222;28;20027;-72
2022/10/17 07:33:29;;;;;;;15.68;10.77;;;16.50;99.90;;;;;;5103420;28;20019;-71
2022/10/17 07:35:58;;;;;;;17.98;11.15;;;16.60;99.90;;;;;;5089121;28;20042;-71
2022/10/17 07:38:23;;;;;;;17.80;10.82;;;16.70;99.90;;;;;;5107596;28;20035;-73
2022/10/17 07:41:00;;;;;;;20.15;10.93;;;16.70;99.90;;;;;;5107120;28;20053;-71
2022/10/17 07:43:27;;;;;;;18.40;10.68;;;16.90;99.90;;;;;;5109767;28;20080;-72
2022/10/17 07:45:53;;;;;;;21.90;11.38;;;16.90;99.90;;;;;;5108753;28;20020;-71
2022/10/17 07:48:20;;;;;;;18.13;10.90;;;16.90;99.90;;;;;;5107096;28;20023;-71
2022/10/17 07:50:46;;;;;;;16.63;10.68;;;17.00;99.90;;;;;;5109746;28;20160;-72
2022/10/17 07:53:11;;;;;;;17.40;10.73;;;17.10;99.90;;;;;;5110087;28;20469;-73
2022/10/17 07:55:38;;;;;;;19.35;10.88;;;17.10;99.90;;;;;;5108304;28;20391;-72
2022/10/17 07:58:04;;;;;;;20.55;10.85;;;17.10;99.90;;;;;;5109488;28;20388;-75
2022/10/17 08:00:29;;;;;;;18.73;11.13;;;17.10;99.90;;;;;;5109724;28;20035;-74
2022/10/17 08:02:55;;;;;;;22.40;10.40;;;17.10;99.90;;;;;;5092189;28;20030;-74
2022/10/17 08:05:20;;;;;;;23.08;10.80;;;17.10;99.90;;;;;;5109442;28;20019;-74
2022/10/17 08:07:46;;;;;;;19.25;10.75;;;17.10;99.90;;;;;;5107638;28;20472;-77
2022/10/17 08:10:14;;;;;;;19.83;10.85;;;17.00;99.90;;;;;;5109616;28;20118;-74
2022/10/17 08:12:39;;;;;;;17.13;10.50;;;17.10;99.90;;;;;;5109777;28;20513;-73
2022/10/17 08:15:06;;;;;;;18.67;11.02;;;17.00;99.90;;;;;;5109733;28;20024;-75
2022/10/17 08:17:34;;;;;;;19.83;11.25;;;17.00;99.90;;;;;;5106106;28;20028;-73
2022/10/17 08:19:59;;;;;;;16.77;10.80;;;17.00;99.90;;;;;;5109914;28;20395;-73
2022/10/17 08:22:25;;;;;;;18.38;11.10;;;17.00;99.90;;;;;;5108642;28;20030;-73
2022/10/17 08:24:50;;;;;;;15.32;10.63;;;17.00;99.90;;;;;;5109374;28;20081;-73
2022/10/17 08:27:22;;;;;;;20.50;10.93;;;16.90;99.90;;;;;;5105737;28;20444;-74
2022/10/17 08:29:51;;;;;;;18.20;11.07;;;16.90;99.90;;;;;;5109497;28;20055;-74
2022/10/17 08:32:19;;;;;;;16.50;10.80;;;16.90;99.90;;;;;;5108656;28;20043;-73
2022/10/17 08:34:45;;;;;;;20.23;11.18;;;16.90;99.90;;;;;;5106409;28;20043;-73
2022/10/17 08:37:12;;;;;;;17.45;10.75;;;16.80;99.90;;;;;;5108555;28;20031;-74
2022/10/17 08:39:39;;;;;;;17.48;10.57;;;16.90;99.90;;;;;;5107837;28;20038;-73
2022/10/17 08:42:37;;;;;;;18.35;11.50;;;16.90;99.90;;;;;;5107500;28;20050;-73
2022/10/17 08:45:08;;;;;;;17.95;10.98;;;16.80;99.90;;;;;;5025576;28;20489;-73
2022/10/17 08:47:44;;;;;;;17.13;11.30;;;16.80;99.90;;;;;;5025212;28;20513;-73
2022/10/17 08:50:21;;;;;;;20.10;10.73;;;16.90;99.90;;;;;;5008868;28;20045;-75
2022/10/17 08:52:59;;;;;;;16.10;10.57;;;16.80;99.90;;;;;;5025688;28;20045;-73
2022/10/17 08:55:44;;;;;;;19.52;10.63;;;16.90;99.90;;;;;;5024356;28;20049;-73
2022/10/17 08:58:21;;;;;;;19.98;11.40;;;16.90;99.90;;;;;;5026157;28;20030;-74
2022/10/17 09:01:15;;;;;;;16.00;10.90;;;16.80;99.90;;;;;;5025385;28;20132;-73
2022/10/17 09:03:49;;;;;;;20.25;11.40;;;16.80;99.90;;;;;;5025089;28;20041;-74
2022/10/17 09:06:33;;;;;;;20.47;10.07;;;16.80;99.90;;;;;;5025848;28;20026;-73
2022/10/17 09:09:04;;;;;;;19.98;11.27;;;16.80;99.90;;;;;;5024837;28;20556;-73
2022/10/17 09:12:14;;;;;;;23.23;10.95;;;16.80;99.90;;;;;;5020929;28;20519;-73
2022/10/17 09:14:51;;;;;;;17.92;10.38;;;16.90;99.90;;;;;;4938319;28;20075;-74
2022/10/17 09:17:29;;;;;;;15.68;10.45;;;16.90;99.90;;;;;;4950425;28;20475;-73
2022/10/17 09:19:58;;;;;;;19.95;10.85;;;16.90;99.90;;;;;;4958341;28;20046;-73
2022/10/17 09:22:27;;;;;;;18.77;10.88;;;16.90;99.90;;;;;;5002512;28;20105;-74
2022/10/17 09:25:03;;;;;;;21.35;10.88;;;16.90;99.90;;;;;;5014040;28;20029;-73
2022/10/17 09:27:39;;;;;;;20.08;11.80;;;16.90;99.90;;;;;;5015828;28;20076;-73
2022/10/17 09:30:25;;;;;;;18.10;10.82;;;17.00;99.90;;;;;;5006023;28;20117;-73
2022/10/17 09:32:52;;;;;;;17.85;10.50;;;17.00;99.90;;;;;;5002443;28;20029;-73
2022/10/17 09:35:19;;;;;;;17.75;10.68;;;17.00;99.90;;;;;;5008348;28;20029;-73
2022/10/17 09:37:45;;;;;;;18.08;10.45;;;17.00;99.90;;;;;;5008869;28;20058;-74
2022/10/17 09:40:23;;;;;;;18.17;9.73;;;17.00;99.90;;;;;;5007337;28;20061;-73
2022/10/17 09:42:50;;;;;;;15.20;9.32;;;17.10;99.90;;;;;;5008903;28;20108;-73
2022/10/17 09:45:18;;;;;;;16.90;8.50;;;17.00;99.90;;;;;;5004932;28;20054;-73
2022/10/17 09:47:56;;;;;;;12.88;8.25;;;17.00;99.90;;;;;;5019999;28;20400;-72
2022/10/17 09:50:26;;;;;;;16.42;9.18;;;17.00;99.90;;;;;;5094296;28;20097;-73
2022/10/17 09:52:53;;;;;;;17.35;9.65;;;17.00;99.90;;;;;;5111267;28;20023;-73
2022/10/17 09:55:38;;;;;;;18.95;9.93;;;17.00;99.90;;;;;;5076647;28;20020;-73
2022/10/17 09:58:06;;;;;;;17.52;9.90;;;17.00;99.90;;;;;;5102430;28;20023;-73
2022/10/17 10:00:44;;;;;;;16.13;10.00;;;17.00;99.90;;;;;;5109112;28;20019;-73
2022/10/17 10:03:20;;;;;;;16.45;9.75;;;16.90;99.90;;;;;;5100426;28;20048;-73
2022/10/17 10:06:12;;;;;;;21.02;10.10;;;16.90;99.90;;;;;;5108753;28;20379;-73
2022/10/17 10:08:53;;;;;;;13.52;8.88;;;16.90;99.90;;;;;;5092883;28;20555;-73
2022/10/17 10:11:41;;;;;;;16.73;9.32;;;16.90;99.90;;;;;;5099019;28;20016;-72
2022/10/17 10:14:16;;;;;;;13.80;9.15;;;16.90;99.90;;;;;;5110586;28;20027;-73
2022/10/17 10:16:44;;;;;;;14.63;8.98;;;16.80;99.90;;;;;;5101073;28;20073;-72
2022/10/17 10:19:29;;;;;;;13.65;8.75;;;16.90;99.90;;;;;;5106085;28;20092;-73
2022/10/17 10:22:00;;;;;;;14.48;8.85;;;16.80;99.90;;;;;;5111257;28;20047;-73
2022/10/17 10:24:26;;;;;;;13.05;8.23;;;16.90;99.90;;;;;;5110489;28;20024;-73
2022/10/17 10:26:54;;;;;;;12.65;8.35;;;16.90;99.90;;;;;;5111342;28;20106;-74
2022/10/17 10:29:35;;;;;;;15.55;8.13;;;16.80;99.90;;;;;;5109827;28;20020;-73
2022/10/17 10:32:09;;;;;;;13.38;7.53;;;16.80;99.90;;;;;;5102418;28;20055;-73
2022/10/17 10:34:44;;;;;;;11.15;7.20;;;16.80;99.90;;;;;;5090199;28;20032;-73
2022/10/17 10:37:19;;;;;;;14.40;7.38;;;16.80;99.90;;;;;;5099489;28;20106;-70
2022/10/17 10:39:51;;;;;;;11.15;6.38;;;16.70;99.90;;;;;;5096136;28;20411;-71
2022/10/17 10:42:29;;;;;;;9.68;5.70;;;16.70;99.90;;;;;;5110691;28;20042;-71
2022/10/17 10:45:01;;;;;;;12.57;5.85;;;16.70;99.90;;;;;;5093755;28;20039;-70
2022/10/17 10:47:31;;;;;;;6.63;3.83;;;16.70;99.90;;;;;;5099685;28;20089;-70
2022/10/17 10:50:30;;;;;;;6.43;3.10;;;16.60;99.90;;;;;;5095210;28;20055;-71
2022/10/17 10:53:20;;;;;;;9.02;3.75;;;16.50;99.90;;;;;;5071604;28;20020;-73
2022/10/17 10:55:51;;;;;;;6.18;3.30;;;16.40;99.90;;;;;;5095879;28;20038;-73
2022/10/17 10:58:44;;;;;;;4.43;3.50;;;16.30;99.90;;;;;;5097496;28;20055;-73
2022/10/17 11:01:21;;;;;;;7.82;3.60;;;16.30;99.90;;;;;;5098135;28;20036;-71
2022/10/17 11:03:49;;;;;;;6.10;3.55;;;16.30;99.90;;;;;;5110104;28;20020;-71
2022/10/17 11:06:24;;;;;;;5.55;3.30;;;16.20;99.90;;;;;;5101749;28;20025;-72
2022/10/17 11:09:15;;;;;;;9.03;3.57;;;16.20;99.90;;;;;;5103931;28;20038;-73
2022/10/17 11:11:58;;;;;;;6.88;3.00;;;16.20;99.90;;;;;;5092275;28;20266;-73
2022/10/17 11:14:58;;;;;;;6.53;2.83;;;16.20;99.90;;;;;;5108233;28;20223;-73
2022/10/17 11:17:29;;;;;;;6.95;2.85;;;16.10;99.90;;;;;;5108668;27;20015;-73
2022/10/17 11:19:59;;;;;;;5.38;2.78;;;16.10;99.90;;;;;;5107450;28;20034;-73
2022/10/17 11:22:37;;;;;;;6.30;3.25;;;16.20;99.90;;;;;;5107864;28;20023;-73
2022/10/17 11:25:39;;;;;;;5.80;3.13;;;16.20;99.90;;;;;;5108424;28;20023;-70
2022/10/17 11:28:15;;;;;;;5.82;3.17;;;16.30;99.90;;;;;;5107186;28;20035;-71
2022/10/17 11:30:57;;;;;;;7.72;3.35;;;16.30;99.90;;;;;;5105595;28;20028;-72
2022/10/17 11:33:53;;;;;;;7.50;3.38;;;16.40;99.90;;;;;;5100943;28;20028;-72
2022/10/17 11:36:24;;;;;;;6.55;3.40;;;16.40;99.90;;;;;;5100336;28;20483;-72
2022/10/17 11:38:53;;;;;;;6.38;3.75;;;16.50;99.90;;;;;;5080990;28;20070;-71
2022/10/17 11:41:30;;;;;;;5.32;3.70;;;16.60;99.90;;;;;;5113374;28;20104;-71
2022/10/17 11:44:14;;;;;;;9.90;4.50;;;16.60;99.90;;;;;;5102406;28;20028;-71
2022/10/17 11:46:41;;;;;;;7.80;5.10;;;16.70;99.90;;;;;;5105436;28;20023;-71
2022/10/17 11:49:36;;;;;;;7.18;4.90;;;16.80;99.90;;;;;;5106107;28;20105;-71
2022/10/17 11:52:10;;;;;;;11.38;5.28;;;16.90;99.90;;;;;;5103775;28;20376;-72
2022/10/17 11:54:47;;;;;;;11.20;5.70;;;17.00;99.90;;;;;;5109818;28;20065;-73
2022/10/17 11:57:45;;;;;;;9.57;6.00;;;17.00;99.90;;;;;;5104127;28;20487;-71
2022/10/17 12:00:23;;;;;;;8.15;5.72;;;17.10;99.90;;;;;;5109231;28;20028;-72
2022/10/17 12:03:07;;;;;;;7.65;5.70;;;17.20;99.90;;;;;;5109521;28;20411;-71
2022/10/17 12:05:47;;;;;;;10.55;5.70;;;17.30;99.90;;;;;;5109566;28;20020;-71
2022/10/17 12:08:24;;;;;;;8.60;5.50;;;17.30;99.90;;;;;;5109346;28;20035;-71
2022/10/17 12:10:56;;;;;;;6.70;4.45;;;17.40;99.90;;;;;;5108487;28;20024;-71
2022/10/17 12:13:27;;;;;;;9.00;4.70;;;17.50;99.90;;;;;;5109666;28;20020;-71
2022/10/17 12:16:18;;;;;;;7.43;4.22;;;17.50;99.90;;;;;;5108160;28;20064;-71
2022/10/17 12:18:46;;;;;;;9.27;4.50;;;17.50;99.90;;;;;;5108935;28;20432;-71
2022/10/17 12:21:11;;;;;;;8.25;4.35;;;17.60;99.90;;;;;;5108787;28;20048;-71
2022/10/17 12:23:38;;;;;;;7.22;4.40;;;17.60;99.90;;;;;;5105350;28;20031;-72
2022/10/17 12:26:07;;;;;;;7.32;4.20;;;17.60;99.90;;;;;;5112783;28;20121;-71
2022/10/17 12:28:43;;;;;;;6.80;3.60;;;17.70;99.90;;;;;;5104192;28;20026;-71
2022/10/17 12:31:21;;;;;;;5.43;3.90;;;17.70;99.90;;;;;;5107045;28;20020;-71
2022/10/17 12:33:54;;;;;;;7.93;4.13;;;17.70;99.90;;;;;;5105671;28;20027;-72
2022/10/17 12:36:25;;;;;;;5.72;3.70;;;17.70;99.90;;;;;;5109369;28;20499;-72
2022/10/17 12:39:13;;;;;;;6.18;3.75;;;17.70;99.90;;;;;;5110986;28;20523;-71
2022/10/17 12:41:39;;;;;;;9.27;3.95;;;17.80;99.90;;;;;;5105742;28;20028;-72
2022/10/17 12:44:13;;;;;;;6.80;4.10;;;17.70;99.90;;;;;;5107250;28;20046;-71
2022/10/17 12:46:55;;;;;;;7.70;4.50;;;17.80;99.90;;;;;;5108446;28;20063;-71
2022/10/17 12:49:40;;;;;;;5.22;4.03;;;17.70;99.90;;;;;;5107868;28;20071;-71
2022/10/17 12:52:23;;;;;;;9.68;4.40;;;17.70;99.90;;;;;;5107058;28;20068;-73
2022/10/17 12:55:03;;;;;;;7.95;4.03;;;17.70;99.90;;;;;;5108019;28;20102;-72